sensor_id;sensor_type;location;lat;lon;timestamp;P1;durP1;ratioP1;P2;durP2;ratioP2
80411;SDS011;69749;42.684;23.360;2024-03-17T00:02:05;17.85;;;10.93;;
80411;SDS011;69749;42.684;23.360;2024-03-17T00:04:31;17.90;;;10.10;;
80411;SDS011;69749;42.684;23.360;2024-03-17T00:06:57;19.08;;;9.80;;
80411;SDS011;69749;42.684;23.360;2024-03-17T00:09:22;19.38;;;9.80;;
80411;SDS011;69749;42.684;23.360;2024-03-17T00:11:49;18.35;;;10.48;;
80411;SDS011;69749;42.684;23.360;2024-03-17T00:14:15;17.83;;;9.30;;
80411;SDS011;69749;42.684;23.360;2024-03-17T00:16:41;15.43;;;9.45;;
80411;SDS011;69749;42.684;23.360;2024-03-17T00:19:07;16.60;;;9.27;;
80411;SDS011;69749;42.684;23.360;2024-03-17T00:21:33;19.92;;;9.90;;
80411;SDS011;69749;42.684;23.360;2024-03-17T00:24:01;19.13;;;9.60;;
80411;SDS011;69749;42.684;23.360;2024-03-17T00:26:28;21.23;;;10.35;;
80411;SDS011;69749;42.684;23.360;2024-03-17T00:28:54;15.82;;;10.40;;
80411;SDS011;69749;42.684;23.360;2024-03-17T00:31:20;17.15;;;9.60;;
80411;SDS011;69749;42.684;23.360;2024-03-17T00:33:45;18.00;;;10.02;;
80411;SDS011;69749;42.684;23.360;2024-03-17T00:36:11;15.90;;;9.23;;
80411;SDS011;69749;42.684;23.360;2024-03-17T00:38:37;18.17;;;9.82;;
80411;SDS011;69749;42.684;23.360;2024-03-17T00:41:03;18.10;;;9.20;;
80411;SDS011;69749;42.684;23.360;2024-03-17T00:43:29;17.77;;;9.88;;
80411;SDS011;69749;42.684;23.360;2024-03-17T00:45:54;17.08;;;9.23;;
80411;SDS011;69749;42.684;23.360;2024-03-17T00:48:20;17.13;;;9.50;;
80411;SDS011;69749;42.684;23.360;2024-03-17T00:50:45;15.40;;;9.23;;
80411;SDS011;69749;42.684;23.360;2024-03-17T00:53:11;16.80;;;9.70;;
80411;SDS011;69749;42.684;23.360;2024-03-17T00:55:37;17.92;;;9.88;;
80411;SDS011;69749;42.684;23.360;2024-03-17T00:58:03;15.40;;;9.55;;
80411;SDS011;69749;42.684;23.360;2024-03-17T01:00:28;17.30;;;9.45;;
80411;SDS011;69749;42.684;23.360;2024-03-17T01:02:54;16.48;;;9.15;;
80411;SDS011;69749;42.684;23.360;2024-03-17T01:05:20;20.05;;;10.80;;
80411;SDS011;69749;42.684;23.360;2024-03-17T01:07:45;15.32;;;9.45;;
80411;SDS011;69749;42.684;23.360;2024-03-17T01:10:13;18.92;;;10.30;;
80411;SDS011;69749;42.684;23.360;2024-03-17T01:12:38;19.65;;;10.70;;
80411;SDS011;69749;42.684;23.360;2024-03-17T01:15:06;20.38;;;12.05;;
80411;SDS011;69749;42.684;23.360;2024-03-17T01:17:33;23.08;;;13.07;;
80411;SDS011;69749;42.684;23.360;2024-03-17T01:19:59;23.73;;;12.85;;
80411;SDS011;69749;42.684;23.360;2024-03-17T01:22:24;17.33;;;10.38;;
80411;SDS011;69749;42.684;23.360;2024-03-17T01:24:50;20.40;;;10.82;;
80411;SDS011;69749;42.684;23.360;2024-03-17T01:27:15;18.27;;;10.68;;
80411;SDS011;69749;42.684;23.360;2024-03-17T01:29:41;18.67;;;10.20;;
80411;SDS011;69749;42.684;23.360;2024-03-17T01:32:08;18.08;;;9.85;;
80411;SDS011;69749;42.684;23.360;2024-03-17T01:34:34;20.25;;;10.65;;
80411;SDS011;69749;42.684;23.360;2024-03-17T01:37:00;21.40;;;11.50;;
80411;SDS011;69749;42.684;23.360;2024-03-17T01:39:25;23.10;;;11.50;;
80411;SDS011;69749;42.684;23.360;2024-03-17T01:41:51;20.10;;;11.43;;
80411;SDS011;69749;42.684;23.360;2024-03-17T01:44:24;20.50;;;12.02;;
80411;SDS011;69749;42.684;23.360;2024-03-17T01:46:52;25.70;;;13.90;;
80411;SDS011;69749;42.684;23.360;2024-03-17T01:49:18;23.20;;;13.52;;
80411;SDS011;69749;42.684;23.360;2024-03-17T01:51:45;24.63;;;14.40;;
80411;SDS011;69749;42.684;23.360;2024-03-17T01:54:12;30.08;;;16.35;;
80411;SDS011;69749;42.684;23.360;2024-03-17T01:56:38;28.00;;;15.73;;
80411;SDS011;69749;42.684;23.360;2024-03-17T01:59:04;29.15;;;16.25;;
80411;SDS011;69749;42.684;23.360;2024-03-17T02:01:31;27.15;;;16.25;;
80411;SDS011;69749;42.684;23.360;2024-03-17T02:03:57;31.30;;;16.98;;
80411;SDS011;69749;42.684;23.360;2024-03-17T02:06:23;34.13;;;17.85;;
80411;SDS011;69749;42.684;23.360;2024-03-17T02:11:24;28.52;;;18.05;;
80411;SDS011;69749;42.684;23.360;2024-03-17T02:14:00;28.58;;;16.70;;
80411;SDS011;69749;42.684;23.360;2024-03-17T02:16:26;29.55;;;18.30;;
80411;SDS011;69749;42.684;23.360;2024-03-17T02:18:55;30.17;;;17.08;;
80411;SDS011;69749;42.684;23.360;2024-03-17T02:21:21;29.48;;;16.17;;
80411;SDS011;69749;42.684;23.360;2024-03-17T02:23:53;31.35;;;16.80;;
80411;SDS011;69749;42.684;23.360;2024-03-17T02:26:19;32.28;;;16.85;;
80411;SDS011;69749;42.684;23.360;2024-03-17T02:28:45;31.35;;;16.77;;
80411;SDS011;69749;42.684;23.360;2024-03-17T02:31:13;31.23;;;16.60;;
80411;SDS011;69749;42.684;23.360;2024-03-17T02:33:40;28.17;;;16.30;;
80411;SDS011;69749;42.684;23.360;2024-03-17T02:36:06;29.83;;;17.30;;
80411;SDS011;69749;42.684;23.360;2024-03-17T02:38:33;31.70;;;17.20;;
80411;SDS011;69749;42.684;23.360;2024-03-17T02:41:18;31.50;;;16.20;;
80411;SDS011;69749;42.684;23.360;2024-03-17T02:43:44;31.45;;;17.50;;
80411;SDS011;69749;42.684;23.360;2024-03-17T02:46:11;30.70;;;17.95;;
80411;SDS011;69749;42.684;23.360;2024-03-17T02:48:38;27.85;;;16.25;;
80411;SDS011;69749;42.684;23.360;2024-03-17T02:51:09;30.45;;;16.48;;
80411;SDS011;69749;42.684;23.360;2024-03-17T02:53:36;29.27;;;16.40;;
80411;SDS011;69749;42.684;23.360;2024-03-17T02:56:01;28.50;;;16.70;;
80411;SDS011;69749;42.684;23.360;2024-03-17T02:58:27;31.08;;;16.98;;
80411;SDS011;69749;42.684;23.360;2024-03-17T03:00:52;29.67;;;16.40;;
80411;SDS011;69749;42.684;23.360;2024-03-17T03:03:18;29.88;;;16.60;;
80411;SDS011;69749;42.684;23.360;2024-03-17T03:05:45;29.55;;;16.60;;
80411;SDS011;69749;42.684;23.360;2024-03-17T03:08:11;28.13;;;16.25;;
80411;SDS011;69749;42.684;23.360;2024-03-17T03:10:36;28.13;;;17.10;;
80411;SDS011;69749;42.684;23.360;2024-03-17T03:13:02;31.65;;;16.67;;
80411;SDS011;69749;42.684;23.360;2024-03-17T03:15:30;33.17;;;17.48;;
80411;SDS011;69749;42.684;23.360;2024-03-17T03:17:57;27.08;;;16.35;;
80411;SDS011;69749;42.684;23.360;2024-03-17T03:20:23;28.92;;;15.48;;
80411;SDS011;69749;42.684;23.360;2024-03-17T03:22:48;34.25;;;16.88;;
80411;SDS011;69749;42.684;23.360;2024-03-17T03:25:14;28.42;;;15.68;;
80411;SDS011;69749;42.684;23.360;2024-03-17T03:27:39;27.63;;;16.48;;
80411;SDS011;69749;42.684;23.360;2024-03-17T03:30:05;27.63;;;16.80;;
80411;SDS011;69749;42.684;23.360;2024-03-17T03:32:33;31.10;;;15.93;;
80411;SDS011;69749;42.684;23.360;2024-03-17T03:34:59;30.80;;;17.23;;
80411;SDS011;69749;42.684;23.360;2024-03-17T03:37:25;30.88;;;16.90;;
80411;SDS011;69749;42.684;23.360;2024-03-17T03:39:51;26.15;;;17.00;;
80411;SDS011;69749;42.684;23.360;2024-03-17T03:42:16;28.58;;;16.98;;
80411;SDS011;69749;42.684;23.360;2024-03-17T03:44:42;27.67;;;16.90;;
80411;SDS011;69749;42.684;23.360;2024-03-17T03:47:08;28.10;;;16.52;;
80411;SDS011;69749;42.684;23.360;2024-03-17T03:49:34;28.33;;;16.00;;
80411;SDS011;69749;42.684;23.360;2024-03-17T03:51:59;30.52;;;17.17;;
80411;SDS011;69749;42.684;23.360;2024-03-17T03:54:25;33.17;;;16.48;;
80411;SDS011;69749;42.684;23.360;2024-03-17T03:56:50;26.85;;;16.40;;
80411;SDS011;69749;42.684;23.360;2024-03-17T03:59:16;36.35;;;18.10;;
80411;SDS011;69749;42.684;23.360;2024-03-17T04:01:41;33.85;;;19.42;;
80411;SDS011;69749;42.684;23.360;2024-03-17T04:04:06;39.53;;;20.38;;
80411;SDS011;69749;42.684;23.360;2024-03-17T04:06:32;41.65;;;22.00;;
80411;SDS011;69749;42.684;23.360;2024-03-17T04:08:57;37.92;;;20.08;;
80411;SDS011;69749;42.684;23.360;2024-03-17T04:11:23;32.97;;;19.05;;
80411;SDS011;69749;42.684;23.360;2024-03-17T04:13:48;38.88;;;20.83;;
80411;SDS011;69749;42.684;23.360;2024-03-17T04:16:14;44.08;;;21.88;;
80411;SDS011;69749;42.684;23.360;2024-03-17T04:18:40;38.17;;;20.60;;
80411;SDS011;69749;42.684;23.360;2024-03-17T04:21:06;41.80;;;21.10;;
80411;SDS011;69749;42.684;23.360;2024-03-17T04:23:34;36.70;;;19.02;;
80411;SDS011;69749;42.684;23.360;2024-03-17T04:26:00;35.42;;;20.60;;
80411;SDS011;69749;42.684;23.360;2024-03-17T04:28:28;36.70;;;19.70;;
80411;SDS011;69749;42.684;23.360;2024-03-17T04:31:02;33.70;;;19.45;;
80411;SDS011;69749;42.684;23.360;2024-03-17T04:33:31;31.98;;;17.85;;
80411;SDS011;69749;42.684;23.360;2024-03-17T04:35:57;42.03;;;19.40;;
80411;SDS011;69749;42.684;23.360;2024-03-17T04:38:23;36.33;;;19.00;;
80411;SDS011;69749;42.684;23.360;2024-03-17T04:40:49;32.40;;;18.13;;
80411;SDS011;69749;42.684;23.360;2024-03-17T04:43:15;28.13;;;16.80;;
80411;SDS011;69749;42.684;23.360;2024-03-17T04:45:41;38.42;;;19.10;;
80411;SDS011;69749;42.684;23.360;2024-03-17T04:48:07;36.25;;;17.75;;
80411;SDS011;69749;42.684;23.360;2024-03-17T04:50:32;32.55;;;19.13;;
80411;SDS011;69749;42.684;23.360;2024-03-17T04:52:59;30.17;;;17.90;;
80411;SDS011;69749;42.684;23.360;2024-03-17T04:55:25;35.45;;;19.17;;
80411;SDS011;69749;42.684;23.360;2024-03-17T04:57:50;42.05;;;20.75;;
80411;SDS011;69749;42.684;23.360;2024-03-17T05:00:16;38.67;;;20.05;;
80411;SDS011;69749;42.684;23.360;2024-03-17T05:02:43;46.20;;;21.92;;
80411;SDS011;69749;42.684;23.360;2024-03-17T05:05:09;44.58;;;21.95;;
80411;SDS011;69749;42.684;23.360;2024-03-17T05:07:35;39.60;;;22.35;;
80411;SDS011;69749;42.684;23.360;2024-03-17T05:10:02;38.75;;;21.98;;
80411;SDS011;69749;42.684;23.360;2024-03-17T05:12:28;42.45;;;21.08;;
80411;SDS011;69749;42.684;23.360;2024-03-17T05:14:53;43.28;;;21.25;;
80411;SDS011;69749;42.684;23.360;2024-03-17T05:17:19;39.05;;;21.20;;
80411;SDS011;69749;42.684;23.360;2024-03-17T05:19:44;42.00;;;21.58;;
80411;SDS011;69749;42.684;23.360;2024-03-17T05:22:10;39.25;;;19.88;;
80411;SDS011;69749;42.684;23.360;2024-03-17T05:24:35;42.30;;;20.02;;
80411;SDS011;69749;42.684;23.360;2024-03-17T05:27:01;36.53;;;20.45;;
80411;SDS011;69749;42.684;23.360;2024-03-17T05:29:27;34.45;;;19.83;;
80411;SDS011;69749;42.684;23.360;2024-03-17T05:31:52;33.38;;;18.90;;
80411;SDS011;69749;42.684;23.360;2024-03-17T05:34:18;32.47;;;17.77;;
80411;SDS011;69749;42.684;23.360;2024-03-17T05:36:43;26.67;;;17.05;;
80411;SDS011;69749;42.684;23.360;2024-03-17T05:39:09;25.50;;;15.25;;
80411;SDS011;69749;42.684;23.360;2024-03-17T05:41:34;26.85;;;16.33;;
80411;SDS011;69749;42.684;23.360;2024-03-17T05:44:00;29.67;;;16.90;;
80411;SDS011;69749;42.684;23.360;2024-03-17T05:46:28;24.80;;;15.80;;
80411;SDS011;69749;42.684;23.360;2024-03-17T05:48:54;25.83;;;15.65;;
80411;SDS011;69749;42.684;23.360;2024-03-17T05:51:19;32.22;;;17.73;;
80411;SDS011;69749;42.684;23.360;2024-03-17T05:53:45;25.83;;;16.58;;
80411;SDS011;69749;42.684;23.360;2024-03-17T05:56:11;29.27;;;17.15;;
80411;SDS011;69749;42.684;23.360;2024-03-17T05:58:37;29.02;;;17.70;;
80411;SDS011;69749;42.684;23.360;2024-03-17T06:01:04;24.00;;;16.35;;
80411;SDS011;69749;42.684;23.360;2024-03-17T06:03:32;26.00;;;17.52;;
80411;SDS011;69749;42.684;23.360;2024-03-17T06:06:00;30.98;;;18.52;;
80411;SDS011;69749;42.684;23.360;2024-03-17T06:08:26;28.25;;;18.50;;
80411;SDS011;69749;42.684;23.360;2024-03-17T06:10:51;30.95;;;19.20;;
80411;SDS011;69749;42.684;23.360;2024-03-17T06:13:17;31.63;;;19.23;;
80411;SDS011;69749;42.684;23.360;2024-03-17T06:15:43;29.30;;;19.40;;
80411;SDS011;69749;42.684;23.360;2024-03-17T06:18:12;32.67;;;19.50;;
80411;SDS011;69749;42.684;23.360;2024-03-17T06:20:46;28.48;;;17.38;;
80411;SDS011;69749;42.684;23.360;2024-03-17T06:23:13;27.27;;;18.52;;
80411;SDS011;69749;42.684;23.360;2024-03-17T06:25:58;27.30;;;17.85;;
80411;SDS011;69749;42.684;23.360;2024-03-17T06:28:24;26.77;;;17.70;;
80411;SDS011;69749;42.684;23.360;2024-03-17T06:30:54;26.98;;;17.20;;
80411;SDS011;69749;42.684;23.360;2024-03-17T06:33:24;26.55;;;17.33;;
80411;SDS011;69749;42.684;23.360;2024-03-17T06:35:50;20.60;;;15.55;;
80411;SDS011;69749;42.684;23.360;2024-03-17T06:38:16;20.70;;;13.90;;
80411;SDS011;69749;42.684;23.360;2024-03-17T06:40:41;20.40;;;14.82;;
80411;SDS011;69749;42.684;23.360;2024-03-17T06:43:13;18.83;;;13.82;;
80411;SDS011;69749;42.684;23.360;2024-03-17T06:45:38;20.08;;;13.70;;
80411;SDS011;69749;42.684;23.360;2024-03-17T06:48:04;20.23;;;14.13;;
80411;SDS011;69749;42.684;23.360;2024-03-17T06:50:29;19.27;;;14.13;;
80411;SDS011;69749;42.684;23.360;2024-03-17T06:52:55;21.88;;;14.35;;
80411;SDS011;69749;42.684;23.360;2024-03-17T06:55:21;19.83;;;13.68;;
80411;SDS011;69749;42.684;23.360;2024-03-17T06:57:47;19.38;;;14.63;;
80411;SDS011;69749;42.684;23.360;2024-03-17T07:00:13;18.13;;;13.95;;
80411;SDS011;69749;42.684;23.360;2024-03-17T07:02:43;18.05;;;13.70;;
80411;SDS011;69749;42.684;23.360;2024-03-17T07:05:12;17.75;;;13.55;;
80411;SDS011;69749;42.684;23.360;2024-03-17T07:07:43;17.13;;;13.73;;
80411;SDS011;69749;42.684;23.360;2024-03-17T07:10:09;18.27;;;13.57;;
80411;SDS011;69749;42.684;23.360;2024-03-17T07:12:36;17.35;;;12.73;;
80411;SDS011;69749;42.684;23.360;2024-03-17T07:15:02;15.15;;;12.23;;
80411;SDS011;69749;42.684;23.360;2024-03-17T07:17:34;16.00;;;11.65;;
80411;SDS011;69749;42.684;23.360;2024-03-17T07:20:00;17.75;;;13.13;;
80411;SDS011;69749;42.684;23.360;2024-03-17T07:22:33;18.63;;;12.98;;
80411;SDS011;69749;42.684;23.360;2024-03-17T07:24:58;18.48;;;12.27;;
80411;SDS011;69749;42.684;23.360;2024-03-17T07:27:29;15.45;;;11.57;;
80411;SDS011;69749;42.684;23.360;2024-03-17T07:29:54;17.23;;;12.32;;
80411;SDS011;69749;42.684;23.360;2024-03-17T07:32:20;17.73;;;11.85;;
80411;SDS011;69749;42.684;23.360;2024-03-17T07:34:48;15.38;;;11.77;;
80411;SDS011;69749;42.684;23.360;2024-03-17T07:39:40;20.15;;;12.98;;
80411;SDS011;69749;42.684;23.360;2024-03-17T07:42:06;17.95;;;11.75;;
80411;SDS011;69749;42.684;23.360;2024-03-17T07:44:32;16.85;;;11.95;;
80411;SDS011;69749;42.684;23.360;2024-03-17T07:47:01;22.02;;;13.50;;
80411;SDS011;69749;42.684;23.360;2024-03-17T07:49:29;19.60;;;11.32;;
80411;SDS011;69749;42.684;23.360;2024-03-17T07:51:55;15.90;;;11.32;;
80411;SDS011;69749;42.684;23.360;2024-03-17T07:54:22;16.80;;;10.70;;
80411;SDS011;69749;42.684;23.360;2024-03-17T07:56:54;19.95;;;12.05;;
80411;SDS011;69749;42.684;23.360;2024-03-17T07:59:20;16.38;;;11.05;;
80411;SDS011;69749;42.684;23.360;2024-03-17T08:01:45;13.13;;;9.50;;
80411;SDS011;69749;42.684;23.360;2024-03-17T08:04:11;17.40;;;10.25;;
80411;SDS011;69749;42.684;23.360;2024-03-17T08:06:38;18.58;;;10.48;;
80411;SDS011;69749;42.684;23.360;2024-03-17T08:09:05;21.55;;;12.43;;
80411;SDS011;69749;42.684;23.360;2024-03-17T08:13:58;16.27;;;10.65;;
80411;SDS011;69749;42.684;23.360;2024-03-17T08:16:24;21.13;;;11.07;;
80411;SDS011;69749;42.684;23.360;2024-03-17T08:18:49;20.88;;;12.25;;
80411;SDS011;69749;42.684;23.360;2024-03-17T08:21:15;16.73;;;12.00;;
80411;SDS011;69749;42.684;23.360;2024-03-17T08:23:40;18.05;;;10.68;;
80411;SDS011;69749;42.684;23.360;2024-03-17T08:26:11;16.90;;;10.60;;
80411;SDS011;69749;42.684;23.360;2024-03-17T08:28:36;14.75;;;9.60;;
80411;SDS011;69749;42.684;23.360;2024-03-17T08:31:02;16.80;;;11.48;;
80411;SDS011;69749;42.684;23.360;2024-03-17T08:33:28;15.45;;;9.20;;
80411;SDS011;69749;42.684;23.360;2024-03-17T08:35:59;18.50;;;10.05;;
80411;SDS011;69749;42.684;23.360;2024-03-17T08:38:30;15.65;;;10.00;;
80411;SDS011;69749;42.684;23.360;2024-03-17T08:40:57;14.45;;;10.38;;
80411;SDS011;69749;42.684;23.360;2024-03-17T08:43:29;14.02;;;8.98;;
80411;SDS011;69749;42.684;23.360;2024-03-17T08:45:58;14.77;;;9.38;;
80411;SDS011;69749;42.684;23.360;2024-03-17T08:48:26;21.75;;;16.75;;
80411;SDS011;69749;42.684;23.360;2024-03-17T08:50:54;15.48;;;11.00;;
80411;SDS011;69749;42.684;23.360;2024-03-17T08:53:20;15.07;;;9.52;;
80411;SDS011;69749;42.684;23.360;2024-03-17T08:55:47;13.35;;;9.30;;
80411;SDS011;69749;42.684;23.360;2024-03-17T08:58:16;14.45;;;9.70;;
80411;SDS011;69749;42.684;23.360;2024-03-17T09:00:42;12.18;;;8.68;;
80411;SDS011;69749;42.684;23.360;2024-03-17T09:03:08;10.77;;;8.70;;
80411;SDS011;69749;42.684;23.360;2024-03-17T09:05:41;14.43;;;9.95;;
80411;SDS011;69749;42.684;23.360;2024-03-17T09:08:10;12.30;;;8.60;;
80411;SDS011;69749;42.684;23.360;2024-03-17T09:10:41;14.25;;;9.07;;
80411;SDS011;69749;42.684;23.360;2024-03-17T09:13:11;13.02;;;8.38;;
80411;SDS011;69749;42.684;23.360;2024-03-17T09:15:40;14.35;;;9.55;;
80411;SDS011;69749;42.684;23.360;2024-03-17T09:18:05;15.43;;;9.57;;
80411;SDS011;69749;42.684;23.360;2024-03-17T09:20:31;20.35;;;11.35;;
80411;SDS011;69749;42.684;23.360;2024-03-17T09:22:56;12.20;;;8.73;;
80411;SDS011;69749;42.684;23.360;2024-03-17T09:25:22;18.35;;;10.93;;
80411;SDS011;69749;42.684;23.360;2024-03-17T09:27:48;15.45;;;10.20;;
80411;SDS011;69749;42.684;23.360;2024-03-17T09:30:14;12.25;;;9.38;;
80411;SDS011;69749;42.684;23.360;2024-03-17T09:32:40;12.68;;;9.18;;
80411;SDS011;69749;42.684;23.360;2024-03-17T09:35:06;13.43;;;9.50;;
80411;SDS011;69749;42.684;23.360;2024-03-17T09:37:32;13.02;;;8.80;;
80411;SDS011;69749;42.684;23.360;2024-03-17T09:39:58;13.90;;;9.68;;
80411;SDS011;69749;42.684;23.360;2024-03-17T09:42:25;15.45;;;8.63;;
80411;SDS011;69749;42.684;23.360;2024-03-17T09:44:52;17.73;;;8.65;;
80411;SDS011;69749;42.684;23.360;2024-03-17T09:47:21;15.70;;;8.65;;
80411;SDS011;69749;42.684;23.360;2024-03-17T09:49:47;19.02;;;8.80;;
80411;SDS011;69749;42.684;23.360;2024-03-17T09:52:20;10.77;;;8.45;;
80411;SDS011;69749;42.684;23.360;2024-03-17T09:54:58;13.15;;;8.63;;
80411;SDS011;69749;42.684;23.360;2024-03-17T09:57:25;17.52;;;9.93;;
80411;SDS011;69749;42.684;23.360;2024-03-17T09:59:52;15.30;;;8.18;;
80411;SDS011;69749;42.684;23.360;2024-03-17T10:02:18;13.25;;;8.00;;
80411;SDS011;69749;42.684;23.360;2024-03-17T10:04:44;11.63;;;7.63;;
80411;SDS011;69749;42.684;23.360;2024-03-17T10:07:10;9.98;;;7.07;;
80411;SDS011;69749;42.684;23.360;2024-03-17T10:09:36;7.70;;;5.90;;
80411;SDS011;69749;42.684;23.360;2024-03-17T10:12:02;9.98;;;6.55;;
80411;SDS011;69749;42.684;23.360;2024-03-17T10:14:28;10.73;;;7.85;;
80411;SDS011;69749;42.684;23.360;2024-03-17T10:16:53;9.13;;;6.70;;
80411;SDS011;69749;42.684;23.360;2024-03-17T10:19:23;6.90;;;5.00;;
80411;SDS011;69749;42.684;23.360;2024-03-17T10:21:50;9.07;;;5.82;;
80411;SDS011;69749;42.684;23.360;2024-03-17T10:24:23;15.75;;;6.68;;
80411;SDS011;69749;42.684;23.360;2024-03-17T10:26:51;10.63;;;7.25;;
80411;SDS011;69749;42.684;23.360;2024-03-17T10:29:21;8.23;;;6.75;;
80411;SDS011;69749;42.684;23.360;2024-03-17T10:31:55;10.02;;;5.80;;
80411;SDS011;69749;42.684;23.360;2024-03-17T10:34:27;11.93;;;6.40;;
80411;SDS011;69749;42.684;23.360;2024-03-17T10:37:14;10.68;;;5.78;;
80411;SDS011;69749;42.684;23.360;2024-03-17T10:39:45;8.40;;;5.32;;
80411;SDS011;69749;42.684;23.360;2024-03-17T10:42:13;9.02;;;6.10;;
80411;SDS011;69749;42.684;23.360;2024-03-17T10:44:42;6.78;;;5.20;;
80411;SDS011;69749;42.684;23.360;2024-03-17T10:47:20;8.18;;;5.45;;
80411;SDS011;69749;42.684;23.360;2024-03-17T10:49:53;7.95;;;5.35;;
80411;SDS011;69749;42.684;23.360;2024-03-17T10:52:20;5.45;;;3.97;;
80411;SDS011;69749;42.684;23.360;2024-03-17T10:54:51;10.60;;;5.38;;
80411;SDS011;69749;42.684;23.360;2024-03-17T11:00:05;3.60;;;2.38;;
80411;SDS011;69749;42.684;23.360;2024-03-17T11:02:33;5.28;;;2.88;;
80411;SDS011;69749;42.684;23.360;2024-03-17T11:07:29;6.78;;;4.55;;
80411;SDS011;69749;42.684;23.360;2024-03-17T11:09:56;11.20;;;6.25;;
80411;SDS011;69749;42.684;23.360;2024-03-17T11:20:33;7.50;;;4.97;;
80411;SDS011;69749;42.684;23.360;2024-03-17T11:23:00;7.57;;;4.45;;
80411;SDS011;69749;42.684;23.360;2024-03-17T11:27:52;6.55;;;5.22;;
80411;SDS011;69749;42.684;23.360;2024-03-17T11:38:59;6.55;;;5.40;;
80411;SDS011;69749;42.684;23.360;2024-03-17T11:41:42;7.22;;;4.40;;
80411;SDS011;69749;42.684;23.360;2024-03-17T11:46:44;7.18;;;4.40;;
80411;SDS011;69749;42.684;23.360;2024-03-17T11:49:20;7.03;;;4.70;;
80411;SDS011;69749;42.684;23.360;2024-03-17T11:51:46;4.88;;;3.83;;
80411;SDS011;69749;42.684;23.360;2024-03-17T11:54:16;7.13;;;4.40;;
80411;SDS011;69749;42.684;23.360;2024-03-17T11:56:48;7.70;;;4.15;;
80411;SDS011;69749;42.684;23.360;2024-03-17T11:59:14;26.77;;;5.18;;
80411;SDS011;69749;42.684;23.360;2024-03-17T12:01:43;8.10;;;4.40;;
80411;SDS011;69749;42.684;23.360;2024-03-17T12:04:16;5.20;;;4.30;;
80411;SDS011;69749;42.684;23.360;2024-03-17T12:09:26;7.60;;;4.03;;
80411;SDS011;69749;42.684;23.360;2024-03-17T12:12:01;6.53;;;4.22;;
80411;SDS011;69749;42.684;23.360;2024-03-17T12:14:35;8.77;;;4.68;;
80411;SDS011;69749;42.684;23.360;2024-03-17T12:17:02;5.75;;;3.88;;
80411;SDS011;69749;42.684;23.360;2024-03-17T12:19:33;6.10;;;3.70;;
80411;SDS011;69749;42.684;23.360;2024-03-17T12:21:59;7.28;;;4.72;;
80411;SDS011;69749;42.684;23.360;2024-03-17T12:24:29;6.78;;;4.97;;
80411;SDS011;69749;42.684;23.360;2024-03-17T12:26:57;6.13;;;3.92;;
80411;SDS011;69749;42.684;23.360;2024-03-17T12:29:28;6.03;;;4.35;;
80411;SDS011;69749;42.684;23.360;2024-03-17T12:32:02;4.18;;;3.60;;
80411;SDS011;69749;42.684;23.360;2024-03-17T12:34:47;6.20;;;4.00;;
80411;SDS011;69749;42.684;23.360;2024-03-17T12:37:17;9.10;;;4.20;;
80411;SDS011;69749;42.684;23.360;2024-03-17T12:39:47;7.57;;;4.30;;
80411;SDS011;69749;42.684;23.360;2024-03-17T12:42:14;7.03;;;4.55;;
80411;SDS011;69749;42.684;23.360;2024-03-17T12:44:49;7.72;;;4.50;;
80411;SDS011;69749;42.684;23.360;2024-03-17T12:47:23;8.73;;;5.47;;
80411;SDS011;69749;42.684;23.360;2024-03-17T12:49:51;7.25;;;4.82;;
80411;SDS011;69749;42.684;23.360;2024-03-17T12:52:27;6.55;;;4.78;;
80411;SDS011;69749;42.684;23.360;2024-03-17T12:57:43;7.40;;;4.95;;
80411;SDS011;69749;42.684;23.360;2024-03-17T13:00:31;6.28;;;4.38;;
80411;SDS011;69749;42.684;23.360;2024-03-17T13:05:35;8.82;;;5.05;;
80411;SDS011;69749;42.684;23.360;2024-03-17T13:08:01;8.07;;;5.15;;
80411;SDS011;69749;42.684;23.360;2024-03-17T13:10:27;8.65;;;5.00;;
80411;SDS011;69749;42.684;23.360;2024-03-17T13:13:07;12.85;;;7.05;;
80411;SDS011;69749;42.684;23.360;2024-03-17T13:15:34;10.05;;;6.80;;
80411;SDS011;69749;42.684;23.360;2024-03-17T13:18:03;10.25;;;7.35;;
80411;SDS011;69749;42.684;23.360;2024-03-17T13:20:30;10.95;;;6.30;;
80411;SDS011;69749;42.684;23.360;2024-03-17T13:22:56;7.88;;;5.93;;
80411;SDS011;69749;42.684;23.360;2024-03-17T13:25:29;12.68;;;6.70;;
80411;SDS011;69749;42.684;23.360;2024-03-17T13:27:59;10.02;;;7.00;;
80411;SDS011;69749;42.684;23.360;2024-03-17T13:30:26;14.32;;;8.20;;
80411;SDS011;69749;42.684;23.360;2024-03-17T13:32:53;20.38;;;11.50;;
80411;SDS011;69749;42.684;23.360;2024-03-17T13:35:26;9.68;;;6.60;;
80411;SDS011;69749;42.684;23.360;2024-03-17T13:37:54;10.30;;;6.63;;
80411;SDS011;69749;42.684;23.360;2024-03-17T13:40:20;8.88;;;6.10;;
80411;SDS011;69749;42.684;23.360;2024-03-17T13:42:50;9.32;;;5.60;;
80411;SDS011;69749;42.684;23.360;2024-03-17T13:45:17;6.95;;;5.57;;
80411;SDS011;69749;42.684;23.360;2024-03-17T13:48:06;8.95;;;6.53;;
80411;SDS011;69749;42.684;23.360;2024-03-17T13:50:34;10.95;;;6.60;;
80411;SDS011;69749;42.684;23.360;2024-03-17T13:52:59;10.32;;;6.72;;
80411;SDS011;69749;42.684;23.360;2024-03-17T13:55:28;10.07;;;6.57;;
80411;SDS011;69749;42.684;23.360;2024-03-17T13:57:54;10.10;;;6.80;;
80411;SDS011;69749;42.684;23.360;2024-03-17T14:00:25;11.10;;;7.47;;
80411;SDS011;69749;42.684;23.360;2024-03-17T14:02:53;9.75;;;6.75;;
80411;SDS011;69749;42.684;23.360;2024-03-17T14:05:20;15.88;;;8.55;;
80411;SDS011;69749;42.684;23.360;2024-03-17T14:07:46;13.10;;;8.35;;
80411;SDS011;69749;42.684;23.360;2024-03-17T14:10:13;13.18;;;8.68;;
80411;SDS011;69749;42.684;23.360;2024-03-17T14:12:40;12.30;;;7.88;;
80411;SDS011;69749;42.684;23.360;2024-03-17T14:15:06;9.25;;;5.93;;
80411;SDS011;69749;42.684;23.360;2024-03-17T14:17:35;10.05;;;5.93;;
80411;SDS011;69749;42.684;23.360;2024-03-17T14:20:05;13.35;;;8.00;;
80411;SDS011;69749;42.684;23.360;2024-03-17T14:22:38;15.13;;;7.35;;
80411;SDS011;69749;42.684;23.360;2024-03-17T14:25:05;12.55;;;6.72;;
80411;SDS011;69749;42.684;23.360;2024-03-17T14:27:31;9.85;;;5.85;;
80411;SDS011;69749;42.684;23.360;2024-03-17T14:29:57;8.00;;;6.18;;
80411;SDS011;69749;42.684;23.360;2024-03-17T14:32:23;9.57;;;6.82;;
80411;SDS011;69749;42.684;23.360;2024-03-17T14:34:49;10.95;;;6.05;;
80411;SDS011;69749;42.684;23.360;2024-03-17T14:37:14;11.05;;;6.78;;
80411;SDS011;69749;42.684;23.360;2024-03-17T14:39:40;27.63;;;7.32;;
80411;SDS011;69749;42.684;23.360;2024-03-17T14:42:06;14.35;;;6.60;;
80411;SDS011;69749;42.684;23.360;2024-03-17T14:44:33;10.95;;;6.57;;
80411;SDS011;69749;42.684;23.360;2024-03-17T14:47:00;9.20;;;6.45;;
80411;SDS011;69749;42.684;23.360;2024-03-17T14:49:26;10.63;;;6.35;;
80411;SDS011;69749;42.684;23.360;2024-03-17T14:51:52;10.40;;;7.38;;
80411;SDS011;69749;42.684;23.360;2024-03-17T14:54:17;15.02;;;7.43;;
80411;SDS011;69749;42.684;23.360;2024-03-17T14:56:43;15.10;;;8.40;;
80411;SDS011;69749;42.684;23.360;2024-03-17T14:59:09;10.25;;;7.10;;
80411;SDS011;69749;42.684;23.360;2024-03-17T15:01:34;10.90;;;6.78;;